Airfield :







YOU CAN JOIN US ON...

 
LOGIN :

Register | Disclaimer

   EN    FR    IT 

 









Legend :    VFR   Marginal VFR   IFR   Intensive IFR   Very Intensive IFR
Visi :
Ceiling :
>= 8 km
>= 3000ft
5 to 8 km
1000 to 3000 ft
1500m to 5 km
500 to 1000 ft
800 to 1500m
200 to 500 ft
< 800m
< 200 ft
Symbols :   Thunderstorms  Fog  Heavy snow  Heavy precipitations  Wind > 20 kt






- Airport Elevation : 39 ft
- IATA code : YNA


CYNA - Natashquan

CURRENT METAR :
  • 230431Z AUTO 08013G20KT 9SM -RA OVC013 07/06 A2981 RMK SLP098

EXPIRED METARs :
  • 230400Z AUTO 08013G20KT 9SM OVC013 07/06 A2982 RMK SLP100
  • 230357Z AUTO 07014G20KT 9SM OVC013 07/06 A2982 RMK SLP100
  • 230341Z AUTO 08015G20KT 7SM -RA OVC015 07/06 A2982 RMK SLP100
  • 230300Z AUTO 07013KT 9SM OVC015 08/06 A2983 RMK SLP102
  • 230215Z AUTO 08014G20KT 9SM OVC017 08/06 A2983 RMK SLP104
  • 230200Z AUTO 08013G19KT 9SM -RA OVC017 08/06 A2984 RMK SLP106

TAF TAF CYNA
Valid from the 23 at 02:00 until the 23 at 14:00 UTC


230138Z 2302/2314 08010G20KT P6SM -RA SCT008 OVC015
TEMPO 2302/2314 4SM -RA BR SCT005 OVC008
BECMG 2310/2312 07012KT RMK FCST BASED ON AUTO OBS. NXT FCST BY 230800Z
CZUL FIR / North America



MET'MAP, your aeronautical weather chart ! - Copyright ORBIFLY December 2007 - Disclaimer

ORBIFLY MET'MAP TEAM :

Programming & Development : Alexandra Zaïnal
Concept & original design : Baudouin d'Aumeries
Assistance for programming : Marc-Olivier Méhu
Technical & hardware support : Manuel Goepfert

Contact : metmap@orbifly.com




SOURCES & CREDITS :

   NOAA